Time;durP1;ratioP1;P1;durP2;ratioP2;P2;SDS_P1;SDS_P2;PMS_P1;PMS_P2;Temp;Humidity;BMP_temperature;BMP_pressure;BME280_temperature;BME280_humidity;BME280_pressure;Samples;Min_cycle;Max_cycle;Signal;HPM_P1;HPM_P2
2023/06/19 00:01:09;;;;;;;7.03;5.87;;;24.10;72.60;;;;;;5043614;28;20302;-64
2023/06/19 00:03:36;;;;;;;9.43;6.70;;;24.00;72.30;;;;;;5046474;28;20238;-64
2023/06/19 00:06:04;;;;;;;6.40;5.80;;;24.00;71.90;;;;;;5046175;28;20643;-63
2023/06/19 00:08:31;;;;;;;7.43;6.73;;;24.00;72.00;;;;;;5047566;28;20536;-64
2023/06/19 00:10:58;;;;;;;7.60;6.03;;;23.90;72.20;;;;;;5045018;28;20202;-66
2023/06/19 00:13:25;;;;;;;7.70;6.60;;;23.90;72.10;;;;;;5048146;28;20202;-64
2023/06/19 00:15:53;;;;;;;9.47;6.30;;;24.00;72.20;;;;;;5048942;28;20191;-64
2023/06/19 00:18:20;;;;;;;7.90;5.67;;;24.00;72.40;;;;;;5043430;28;20249;-64
2023/06/19 00:20:47;;;;;;;7.17;5.63;;;24.00;72.10;;;;;;5047061;28;20267;-64
2023/06/19 00:23:16;;;;;;;8.33;6.30;;;23.90;72.30;;;;;;5046673;28;20236;-63
2023/06/19 00:25:44;;;;;;;7.63;6.27;;;23.90;72.60;;;;;;5043670;28;20234;-65
2023/06/19 00:28:14;;;;;;;8.73;6.60;;;23.90;73.00;;;;;;5048054;28;20204;-63
2023/06/19 00:30:42;;;;;;;7.77;6.33;;;23.80;72.60;;;;;;5046808;28;20207;-63
2023/06/19 00:33:09;;;;;;;6.80;5.90;;;23.80;73.00;;;;;;5048183;28;20195;-63
2023/06/19 00:35:36;;;;;;;8.57;6.67;;;23.80;73.70;;;;;;5043798;28;20204;-62
2023/06/19 00:38:05;;;;;;;9.30;6.50;;;23.80;73.80;;;;;;5031819;28;20202;-63
2023/06/19 00:40:33;;;;;;;8.10;6.30;;;23.70;73.60;;;;;;5062981;28;20202;-61
2023/06/19 00:43:01;;;;;;;8.60;6.60;;;23.70;74.00;;;;;;5028268;28;20210;-62
2023/06/19 00:45:28;;;;;;;7.73;7.03;;;23.60;74.00;;;;;;5041724;28;20233;-62
2023/06/19 00:47:58;;;;;;;7.80;7.00;;;23.50;74.00;;;;;;5045840;28;20505;-61
2023/06/19 00:50:25;;;;;;;9.87;7.40;;;23.40;74.30;;;;;;5048347;28;20485;-62
2023/06/19 00:52:53;;;;;;;14.47;9.20;;;23.40;74.60;;;;;;5046035;28;20203;-61
2023/06/19 00:55:21;;;;;;;9.33;7.63;;;23.30;74.70;;;;;;5063055;28;20211;-62
2023/06/19 00:57:49;;;;;;;10.73;7.77;;;23.20;75.30;;;;;;5034578;28;20540;-62
2023/06/19 01:00:17;;;;;;;10.27;8.27;;;23.20;75.90;;;;;;5024794;28;20293;-61
2023/06/19 01:02:47;;;;;;;10.00;7.70;;;23.10;76.10;;;;;;5044824;28;20199;-62
2023/06/19 01:05:16;;;;;;;10.70;7.73;;;23.10;76.00;;;;;;5029205;28;20659;-63
2023/06/19 01:08:07;;;;;;;12.60;9.30;;;23.10;76.00;;;;;;5046679;28;20203;-61
2023/06/19 01:10:39;;;;;;;11.90;9.00;;;23.00;75.90;;;;;;5033166;28;20233;-62
2023/06/19 01:13:11;;;;;;;10.30;8.97;;;23.00;75.70;;;;;;5045318;28;20198;-61
2023/06/19 01:15:41;;;;;;;18.00;9.03;;;23.00;75.70;;;;;;5043783;28;20264;-61
2023/06/19 01:18:11;;;;;;;10.13;8.33;;;23.00;75.70;;;;;;5044398;28;20266;-61
2023/06/19 01:20:38;;;;;;;9.40;8.43;;;23.00;75.70;;;;;;5025722;28;20199;-61
2023/06/19 01:23:08;;;;;;;11.90;9.93;;;22.90;75.60;;;;;;5028984;28;20250;-66
2023/06/19 01:25:36;;;;;;;10.20;9.20;;;22.90;75.60;;;;;;5045329;28;20214;-62
2023/06/19 01:28:09;;;;;;;13.43;9.23;;;22.90;76.20;;;;;;5032395;28;20194;-62
2023/06/19 01:30:42;;;;;;;12.33;9.00;;;22.90;75.70;;;;;;5047449;28;20197;-62
2023/06/19 01:33:26;;;;;;;13.97;9.93;;;22.90;75.80;;;;;;5045074;28;20195;-61
2023/06/19 01:35:55;;;;;;;12.03;9.87;;;22.90;76.10;;;;;;5043398;28;20214;-62
2023/06/19 01:38:25;;;;;;;17.30;10.93;;;22.90;76.20;;;;;;5034271;28;20230;-61
2023/06/19 01:40:56;;;;;;;11.73;10.53;;;22.90;76.40;;;;;;5044046;28;20541;-61
2023/06/19 01:43:24;;;;;;;11.93;10.53;;;22.90;76.50;;;;;;5047303;28;20517;-61
2023/06/19 01:45:52;;;;;;;11.53;10.33;;;22.90;76.40;;;;;;5037473;28;20584;-61
2023/06/19 01:48:19;;;;;;;12.03;10.80;;;22.80;76.40;;;;;;5047750;28;20205;-62
2023/06/19 01:50:48;;;;;;;12.53;10.87;;;22.80;76.60;;;;;;5047723;28;20612;-62
2023/06/19 01:53:15;;;;;;;13.80;10.90;;;22.80;76.80;;;;;;5061527;28;20199;-63
2023/06/19 01:55:43;;;;;;;11.70;10.60;;;22.80;77.00;;;;;;5049095;28;20648;-62
2023/06/19 01:58:10;;;;;;;11.43;10.33;;;22.80;77.30;;;;;;5026501;28;20195;-62
2023/06/19 02:00:37;;;;;;;15.63;11.37;;;22.80;77.50;;;;;;5031598;28;20195;-62
2023/06/19 02:03:09;;;;;;;13.70;12.20;;;22.80;77.60;;;;;;5055499;28;20203;-61
2023/06/19 02:05:39;;;;;;;14.93;11.80;;;22.80;77.80;;;;;;5048520;28;20225;-61
2023/06/19 02:08:06;;;;;;;13.57;12.17;;;22.80;77.80;;;;;;5031660;28;20186;-62
2023/06/19 02:10:36;;;;;;;13.83;12.23;;;22.80;77.90;;;;;;5036804;28;20222;-62
2023/06/19 02:13:03;;;;;;;18.73;13.50;;;22.70;78.00;;;;;;5047390;28;20203;-64
2023/06/19 02:15:30;;;;;;;16.57;13.10;;;22.70;78.10;;;;;;5042752;28;20211;-62
2023/06/19 02:17:57;;;;;;;15.67;13.70;;;22.80;78.20;;;;;;5034126;28;20205;-62
2023/06/19 02:20:25;;;;;;;16.13;13.00;;;22.70;78.30;;;;;;5025511;28;20205;-62
2023/06/19 02:22:55;;;;;;;15.10;11.47;;;22.70;78.40;;;;;;5026145;28;20632;-62
2023/06/19 02:25:22;;;;;;;16.13;12.57;;;22.70;78.60;;;;;;5029851;28;20270;-61
2023/06/19 02:27:49;;;;;;;15.30;13.07;;;22.70;78.70;;;;;;5030730;28;20191;-61
2023/06/19 02:30:17;;;;;;;13.97;12.57;;;22.60;78.70;;;;;;5025559;28;20196;-62
2023/06/19 02:32:44;;;;;;;15.33;12.73;;;22.60;78.70;;;;;;5030764;28;20885;-62
2023/06/19 02:35:11;;;;;;;18.27;13.03;;;22.50;78.60;;;;;;5028528;28;20291;-62
2023/06/19 02:37:39;;;;;;;14.27;12.63;;;22.50;78.60;;;;;;5025321;28;20200;-62
2023/06/19 02:40:09;;;;;;;19.00;13.20;;;22.50;78.60;;;;;;5030874;28;20677;-62
2023/06/19 02:42:36;;;;;;;13.43;11.83;;;22.40;78.60;;;;;;5026965;28;20311;-62
2023/06/19 02:45:03;;;;;;;16.27;13.63;;;22.40;78.50;;;;;;5031320;28;20203;-62
2023/06/19 02:47:31;;;;;;;15.03;13.43;;;22.30;78.60;;;;;;5029998;28;20218;-63
2023/06/19 02:49:59;;;;;;;13.77;11.93;;;22.30;78.80;;;;;;5030203;28;20211;-62
2023/06/19 02:52:27;;;;;;;14.90;11.83;;;22.20;78.90;;;;;;5024071;28;20207;-61
2023/06/19 02:54:54;;;;;;;14.50;11.57;;;22.10;79.20;;;;;;5028560;28;20549;-62
2023/06/19 02:57:21;;;;;;;13.67;11.10;;;22.00;79.50;;;;;;5027630;28;20198;-64
2023/06/19 02:59:49;;;;;;;13.10;11.67;;;21.90;79.80;;;;;;5027790;28;20275;-62
2023/06/19 03:02:16;;;;;;;12.40;11.10;;;21.90;80.00;;;;;;5060612;28;20314;-62
2023/06/19 03:04:46;;;;;;;13.63;11.67;;;21.90;80.00;;;;;;5027634;28;20204;-61
2023/06/19 03:07:13;;;;;;;14.20;12.53;;;21.80;80.20;;;;;;5025719;28;20213;-61
2023/06/19 03:09:41;;;;;;;14.93;12.37;;;21.80;80.50;;;;;;5023150;28;20212;-62
2023/06/19 03:12:09;;;;;;;13.37;12.10;;;21.80;80.80;;;;;;5025775;28;20241;-61
2023/06/19 03:14:37;;;;;;;14.73;13.03;;;21.70;80.80;;;;;;5030635;28;20195;-62
2023/06/19 03:17:04;;;;;;;15.40;11.43;;;21.70;80.90;;;;;;5031018;28;20208;-62
2023/06/19 03:19:32;;;;;;;15.37;11.27;;;21.60;80.90;;;;;;5058666;28;20203;-62
2023/06/19 03:21:59;;;;;;;13.00;11.70;;;21.60;81.00;;;;;;5023802;28;20215;-61
2023/06/19 03:24:26;;;;;;;12.50;11.27;;;21.50;81.30;;;;;;5044029;28;20710;-66
2023/06/19 03:27:01;;;;;;;16.63;11.83;;;21.40;81.60;;;;;;5045580;28;20548;-61
2023/06/19 03:29:30;;;;;;;14.83;13.07;;;21.40;81.90;;;;;;5033500;28;20202;-62
2023/06/19 03:32:04;;;;;;;13.43;12.13;;;21.40;82.00;;;;;;5033383;28;20209;-63
2023/06/19 03:34:34;;;;;;;16.40;12.10;;;21.30;82.10;;;;;;5028785;28;20229;-62
2023/06/19 03:37:05;;;;;;;13.80;11.37;;;21.30;82.30;;;;;;5059922;28;20202;-62
2023/06/19 03:39:34;;;;;;;12.37;11.10;;;21.20;82.30;;;;;;5035693;28;20285;-63
2023/06/19 03:42:05;;;;;;;16.43;12.00;;;21.20;82.50;;;;;;5025614;28;20202;-61
2023/06/19 03:44:34;;;;;;;14.30;11.57;;;21.20;82.70;;;;;;5040737;28;20213;-61
2023/06/19 03:47:01;;;;;;;12.50;10.83;;;21.20;82.90;;;;;;5042948;28;20238;-66
2023/06/19 03:49:28;;;;;;;14.53;10.53;;;21.20;83.00;;;;;;5028406;28;20195;-62
2023/06/19 03:51:55;;;;;;;12.23;10.37;;;21.20;82.90;;;;;;5046996;28;20657;-61
2023/06/19 03:54:24;;;;;;;13.30;10.87;;;21.20;82.90;;;;;;5033871;28;20240;-64
2023/06/19 03:56:52;;;;;;;11.93;10.20;;;21.30;82.90;;;;;;5036163;28;20692;-64
2023/06/19 03:59:19;;;;;;;10.77;9.67;;;21.20;83.60;;;;;;5031118;28;20204;-64
2023/06/19 04:01:46;;;;;;;12.93;9.90;;;21.20;83.10;;;;;;5036396;28;20204;-65
2023/06/19 04:04:13;;;;;;;12.50;9.63;;;21.30;83.20;;;;;;5048080;28;20199;-66
2023/06/19 04:06:40;;;;;;;10.43;9.40;;;21.30;83.30;;;;;;5045018;28;20576;-66
2023/06/19 04:09:08;;;;;;;10.30;9.27;;;21.30;83.20;;;;;;5042932;28;20222;-63
2023/06/19 04:11:36;;;;;;;15.73;10.40;;;21.30;83.20;;;;;;5033538;28;20195;-63
2023/06/19 04:14:03;;;;;;;11.07;9.93;;;21.30;83.20;;;;;;5035066;28;20202;-64
2023/06/19 04:16:30;;;;;;;14.87;9.70;;;21.30;83.50;;;;;;5032641;28;20201;-63
2023/06/19 04:18:57;;;;;;;10.17;9.10;;;21.30;83.60;;;;;;5044589;28;20203;-64
2023/06/19 04:21:26;;;;;;;11.10;9.93;;;21.40;83.70;;;;;;5046659;28;20203;-67
2023/06/19 04:23:53;;;;;;;11.03;9.43;;;21.40;83.80;;;;;;5031431;28;20676;-63
2023/06/19 04:26:21;;;;;;;9.60;8.60;;;21.50;83.90;;;;;;5033207;28;20249;-67
2023/06/19 04:28:48;;;;;;;12.13;8.77;;;21.50;83.80;;;;;;5042706;28;20207;-64
2023/06/19 04:31:17;;;;;;;10.37;8.87;;;21.60;83.50;;;;;;5045079;28;20203;-65
2023/06/19 04:33:48;;;;;;;13.27;9.10;;;21.70;83.30;;;;;;5062672;28;20206;-63
2023/06/19 04:36:15;;;;;;;9.50;8.50;;;21.70;82.90;;;;;;5043857;28;20203;-67
2023/06/19 04:38:43;;;;;;;15.03;8.87;;;21.80;82.70;;;;;;5045833;28;20203;-64
2023/06/19 04:41:11;;;;;;;10.50;8.77;;;21.80;82.60;;;;;;5046281;28;20217;-64
2023/06/19 04:43:41;;;;;;;9.27;8.23;;;21.90;82.40;;;;;;5045942;28;20211;-64
2023/06/19 04:46:08;;;;;;;11.53;8.83;;;21.90;82.30;;;;;;5043942;28;20194;-65
2023/06/19 04:48:36;;;;;;;9.03;7.90;;;21.90;82.30;;;;;;5042493;28;20198;-61
2023/06/19 04:51:03;;;;;;;11.13;8.53;;;22.00;82.40;;;;;;5046069;28;20199;-61
2023/06/19 04:53:30;;;;;;;8.20;7.40;;;22.00;82.50;;;;;;5045445;28;20230;-61
2023/06/19 04:55:57;;;;;;;8.90;7.97;;;22.00;82.40;;;;;;5042854;28;20222;-63
2023/06/19 04:58:28;;;;;;;7.70;7.00;;;22.00;82.30;;;;;;5045920;28;20289;-62
2023/06/19 05:00:55;;;;;;;10.27;7.40;;;22.10;82.10;;;;;;5044567;28;20201;-64
2023/06/19 05:03:22;;;;;;;12.90;7.93;;;22.20;81.90;;;;;;5044914;28;20576;-65
2023/06/19 05:05:49;;;;;;;11.90;7.53;;;22.30;81.50;;;;;;5045790;28;20551;-62
2023/06/19 05:08:16;;;;;;;11.63;7.77;;;22.40;81.10;;;;;;5042061;28;20218;-62
2023/06/19 05:10:43;;;;;;;11.23;7.60;;;22.50;81.00;;;;;;5044304;28;20194;-63
2023/06/19 05:13:12;;;;;;;9.53;7.47;;;22.60;80.60;;;;;;5046699;28;20527;-61
2023/06/19 05:15:39;;;;;;;7.30;6.60;;;22.80;80.00;;;;;;5044111;28;20203;-62
2023/06/19 05:18:06;;;;;;;9.27;7.40;;;22.90;79.30;;;;;;5049334;28;20666;-63
2023/06/19 05:20:33;;;;;;;8.37;6.47;;;23.10;78.80;;;;;;5042678;28;20699;-62
2023/06/19 05:23:01;;;;;;;7.37;6.60;;;23.20;78.30;;;;;;5048696;28;20271;-63
2023/06/19 05:25:28;;;;;;;7.93;6.53;;;23.40;77.90;;;;;;5046672;28;20210;-64
2023/06/19 05:27:55;;;;;;;10.10;6.60;;;23.60;77.40;;;;;;5043058;28;20207;-62
2023/06/19 05:30:22;;;;;;;9.27;6.93;;;23.80;76.80;;;;;;5045540;28;20578;-62
2023/06/19 05:32:49;;;;;;;7.60;6.87;;;23.90;76.30;;;;;;5044880;28;20207;-62
2023/06/19 05:35:16;;;;;;;10.73;6.33;;;24.10;76.00;;;;;;5044340;28;20591;-62
2023/06/19 05:37:44;;;;;;;8.57;6.63;;;24.30;75.60;;;;;;5045815;28;20523;-64
2023/06/19 05:40:11;;;;;;;7.77;6.70;;;24.40;75.00;;;;;;5043542;28;20277;-62
2023/06/19 05:42:41;;;;;;;9.87;6.73;;;24.60;74.50;;;;;;5036455;28;20206;-63
2023/06/19 05:45:09;;;;;;;9.07;6.53;;;24.70;73.90;;;;;;5045560;28;20199;-62
2023/06/19 05:47:36;;;;;;;10.70;5.90;;;24.80;73.30;;;;;;5039346;28;20268;-62
2023/06/19 05:50:03;;;;;;;7.80;6.47;;;25.00;72.90;;;;;;5046746;28;20623;-62
2023/06/19 05:52:30;;;;;;;6.80;6.07;;;25.20;72.60;;;;;;5043733;28;20251;-62
2023/06/19 05:54:58;;;;;;;8.13;6.17;;;25.30;72.20;;;;;;5046045;28;20192;-62
2023/06/19 05:57:25;;;;;;;10.43;5.83;;;25.40;71.70;;;;;;5044599;28;20209;-67
2023/06/19 05:59:52;;;;;;;7.27;5.47;;;25.50;71.30;;;;;;5044732;28;20207;-62
2023/06/19 06:02:20;;;;;;;9.40;6.40;;;25.60;71.10;;;;;;5045694;28;20210;-63
2023/06/19 06:04:47;;;;;;;6.00;5.40;;;25.70;70.70;;;;;;5043899;28;20210;-67
2023/06/19 06:07:15;;;;;;;7.83;5.90;;;25.90;70.40;;;;;;5048614;28;20635;-62
2023/06/19 06:09:42;;;;;;;9.63;5.77;;;25.90;70.00;;;;;;5038278;28;20731;-62
2023/06/19 06:12:09;;;;;;;7.60;5.80;;;26.10;69.70;;;;;;5049742;28;20288;-62
2023/06/19 06:14:36;;;;;;;10.17;5.73;;;26.20;69.20;;;;;;5045548;28;20653;-62
2023/06/19 06:17:05;;;;;;;6.83;5.50;;;26.30;68.70;;;;;;5043140;28;20218;-63
2023/06/19 06:19:32;;;;;;;6.40;5.70;;;26.40;68.40;;;;;;5046266;28;20215;-63
2023/06/19 06:21:59;;;;;;;7.97;5.90;;;26.60;68.40;;;;;;5043630;28;20488;-62
2023/06/19 06:24:27;;;;;;;6.63;5.60;;;26.60;68.40;;;;;;5039477;28;20571;-63
2023/06/19 06:26:54;;;;;;;7.80;5.63;;;26.80;68.20;;;;;;5042087;28;20211;-62
2023/06/19 06:29:21;;;;;;;6.27;5.30;;;27.00;67.60;;;;;;5045119;28;20294;-62
2023/06/19 06:31:49;;;;;;;7.93;5.17;;;27.20;67.10;;;;;;5044830;28;20630;-62
2023/06/19 06:34:16;;;;;;;7.57;5.63;;;27.30;66.70;;;;;;5048476;28;20585;-63
2023/06/19 06:36:43;;;;;;;6.10;5.50;;;27.40;66.60;;;;;;5039476;28;20206;-62
2023/06/19 06:39:30;;;;;;;6.57;5.67;;;27.50;66.50;;;;;;5045647;28;20579;-64
2023/06/19 06:41:57;;;;;;;8.83;5.60;;;27.50;66.20;;;;;;5045389;28;20214;-63
2023/06/19 06:44:24;;;;;;;5.83;5.23;;;27.50;66.30;;;;;;5044319;28;20206;-63
2023/06/19 06:46:51;;;;;;;6.50;5.80;;;27.50;66.00;;;;;;5043243;28;20660;-62
2023/06/19 06:49:18;;;;;;;6.30;5.00;;;27.40;65.90;;;;;;5045955;28;20252;-64
2023/06/19 06:51:45;;;;;;;7.17;5.47;;;27.40;65.90;;;;;;5042776;28;20212;-63
2023/06/19 06:54:13;;;;;;;6.87;5.27;;;27.40;66.20;;;;;;5027532;28;20621;-62
2023/06/19 06:56:40;;;;;;;7.07;6.37;;;27.40;66.10;;;;;;5043036;28;20200;-62
2023/06/19 06:59:07;;;;;;;6.73;5.60;;;27.40;65.90;;;;;;5041533;28;20533;-62
2023/06/19 07:01:34;;;;;;;8.43;6.57;;;27.40;66.10;;;;;;5045313;28;20199;-62
2023/06/19 07:04:01;;;;;;;5.77;5.23;;;27.40;66.50;;;;;;5047180;28;20290;-65
2023/06/19 07:06:28;;;;;;;8.90;5.87;;;27.50;66.60;;;;;;5044566;28;20652;-63
2023/06/19 07:08:55;;;;;;;6.80;5.60;;;27.50;66.20;;;;;;5043305;28;20239;-62
2023/06/19 07:11:22;;;;;;;7.20;5.40;;;27.70;66.00;;;;;;5044593;28;20217;-63
2023/06/19 07:13:50;;;;;;;5.50;5.00;;;27.80;65.20;;;;;;5047071;28;20268;-63
2023/06/19 07:16:17;;;;;;;6.97;5.30;;;28.00;64.90;;;;;;5047234;28;20198;-62
2023/06/19 07:18:44;;;;;;;6.53;5.10;;;28.10;64.50;;;;;;5045923;28;20208;-63
2023/06/19 07:21:14;;;;;;;6.60;5.10;;;28.30;64.10;;;;;;5046235;28;20199;-63
2023/06/19 07:23:45;;;;;;;5.83;4.90;;;28.40;63.40;;;;;;5047517;28;20234;-62
2023/06/19 07:26:12;;;;;;;8.13;5.17;;;28.40;62.60;;;;;;5044364;28;20199;-66
2023/06/19 07:28:40;;;;;;;6.60;5.80;;;28.40;62.40;;;;;;5047492;28;20562;-64
2023/06/19 07:31:07;;;;;;;7.70;5.37;;;28.40;62.50;;;;;;5047518;28;20200;-63
2023/06/19 07:33:35;;;;;;;8.33;5.47;;;28.40;62.40;;;;;;5048286;28;20278;-63
2023/06/19 07:36:02;;;;;;;6.40;4.87;;;28.40;62.50;;;;;;5041848;28;20731;-63
2023/06/19 07:38:29;;;;;;;7.37;5.67;;;28.50;62.60;;;;;;5045072;28;20203;-63
2023/06/19 07:40:57;;;;;;;6.57;5.83;;;28.50;62.80;;;;;;5047476;28;20271;-62
2023/06/19 07:43:24;;;;;;;8.70;5.70;;;28.60;63.10;;;;;;5049239;28;20345;-63
2023/06/19 07:45:51;;;;;;;6.50;5.23;;;28.60;62.20;;;;;;5042331;28;20234;-64
2023/06/19 07:48:18;;;;;;;9.53;5.60;;;28.70;62.30;;;;;;5042899;28;20223;-62
2023/06/19 07:50:45;;;;;;;10.97;5.60;;;28.90;61.80;;;;;;5043793;28;20199;-63
2023/06/19 07:53:12;;;;;;;6.73;5.43;;;29.00;61.10;;;;;;5044991;28;20217;-62
2023/06/19 07:55:40;;;;;;;6.03;5.10;;;29.10;61.40;;;;;;5046336;28;20195;-63
2023/06/19 07:58:08;;;;;;;8.23;5.80;;;29.20;62.30;;;;;;5049414;28;20199;-63
2023/06/19 08:00:35;;;;;;;11.47;5.50;;;29.30;60.60;;;;;;5051248;28;20319;-63
2023/06/19 08:03:02;;;;;;;5.50;4.83;;;29.40;60.50;;;;;;5047767;28;20248;-63
2023/06/19 08:05:30;;;;;;;9.07;4.97;;;29.40;60.80;;;;;;5044913;28;20207;-63
2023/06/19 08:07:59;;;;;;;7.20;4.83;;;29.50;60.60;;;;;;5042605;28;20227;-65
2023/06/19 08:10:26;;;;;;;6.07;4.57;;;29.50;60.00;;;;;;5031811;28;20191;-63
2023/06/19 08:12:53;;;;;;;11.03;5.20;;;29.60;60.10;;;;;;5045627;28;20212;-63
2023/06/19 08:15:20;;;;;;;5.67;5.03;;;29.70;59.40;;;;;;5044714;28;20195;-62
2023/06/19 08:17:47;;;;;;;7.87;4.77;;;29.70;59.60;;;;;;5045467;28;20218;-63
2023/06/19 08:20:15;;;;;;;6.00;5.40;;;29.80;59.60;;;;;;5044366;28;20310;-65
2023/06/19 08:22:42;;;;;;;7.20;5.17;;;29.80;59.50;;;;;;5038765;28;20247;-64
2023/06/19 08:25:09;;;;;;;7.07;5.20;;;29.80;59.70;;;;;;5043635;28;20213;-63
2023/06/19 08:27:36;;;;;;;6.60;5.57;;;29.90;59.60;;;;;;5043669;28;20674;-63
2023/06/19 08:30:04;;;;;;;8.50;5.27;;;29.90;58.90;;;;;;5047979;28;20661;-63
2023/06/19 08:32:31;;;;;;;7.30;5.23;;;29.90;59.00;;;;;;5047548;28;20199;-63
2023/06/19 08:34:58;;;;;;;6.23;4.70;;;30.00;59.30;;;;;;5038823;28;20214;-64
2023/06/19 08:37:25;;;;;;;8.97;4.80;;;30.00;59.00;;;;;;5048667;28;20202;-63
2023/06/19 08:39:52;;;;;;;6.63;5.07;;;30.10;59.20;;;;;;5043340;28;20207;-63
2023/06/19 08:42:19;;;;;;;5.73;4.93;;;30.20;58.70;;;;;;5044683;28;20203;-65
2023/06/19 08:44:46;;;;;;;8.50;5.33;;;30.50;58.00;;;;;;5045029;28;20381;-62
2023/06/19 08:47:14;;;;;;;6.67;4.83;;;30.80;57.20;;;;;;5040957;28;20285;-64
2023/06/19 08:49:41;;;;;;;6.27;4.47;;;30.90;56.50;;;;;;5040608;28;20199;-64
2023/06/19 08:52:08;;;;;;;6.70;5.33;;;30.90;56.30;;;;;;5040466;28;20424;-64
2023/06/19 08:54:43;;;;;;;5.30;4.80;;;30.90;56.90;;;;;;5042352;28;20205;-66
2023/06/19 08:57:12;;;;;;;7.33;4.50;;;30.80;57.00;;;;;;5046189;28;20198;-66
2023/06/19 08:59:39;;;;;;;6.17;5.27;;;30.80;56.80;;;;;;5037531;28;20191;-65
2023/06/19 09:02:06;;;;;;;7.87;5.17;;;30.90;56.90;;;;;;5043660;28;20640;-65
2023/06/19 09:04:34;;;;;;;5.67;4.70;;;30.90;56.90;;;;;;5031680;28;20216;-65
2023/06/19 09:07:03;;;;;;;11.03;5.13;;;31.00;57.00;;;;;;5047555;28;20240;-64
2023/06/19 09:09:49;;;;;;;6.47;5.50;;;31.10;56.50;;;;;;5043996;28;20256;-64
2023/06/19 09:12:17;;;;;;;5.40;4.90;;;31.30;56.10;;;;;;5044471;28;20208;-65
2023/06/19 09:14:55;;;;;;;9.10;5.03;;;31.50;56.20;;;;;;5061875;28;20278;-64
2023/06/19 09:17:22;;;;;;;4.77;4.37;;;31.80;56.00;;;;;;5040451;28;20257;-65
2023/06/19 09:19:55;;;;;;;6.60;4.97;;;31.90;54.10;;;;;;5032907;28;20190;-65
2023/06/19 09:22:24;;;;;;;4.90;4.60;;;31.90;54.20;;;;;;5038524;28;20210;-64
2023/06/19 09:24:52;;;;;;;6.10;4.50;;;32.00;54.50;;;;;;5041524;28;20234;-64
2023/06/19 09:27:20;;;;;;;5.73;4.50;;;32.10;53.40;;;;;;5043752;28;20233;-62
2023/06/19 09:29:49;;;;;;;5.27;4.77;;;32.10;52.60;;;;;;5044627;28;21189;-64
2023/06/19 09:32:23;;;;;;;5.60;4.83;;;32.10;52.80;;;;;;5045302;28;20206;-62
2023/06/19 09:34:53;;;;;;;7.53;5.23;;;32.20;53.10;;;;;;5034137;28;20294;-64
2023/06/19 09:37:26;;;;;;;8.13;4.77;;;32.30;52.00;;;;;;5047398;28;20250;-65
2023/06/19 09:40:09;;;;;;;8.10;5.30;;;32.40;51.80;;;;;;5044665;28;20199;-63
2023/06/19 09:42:39;;;;;;;5.23;4.83;;;32.50;50.70;;;;;;5042238;28;20203;-65
2023/06/19 09:45:18;;;;;;;6.40;5.07;;;32.60;51.20;;;;;;5029216;28;20207;-64
2023/06/19 09:47:47;;;;;;;7.27;4.90;;;32.70;50.70;;;;;;5040056;28;20225;-63
2023/06/19 09:50:17;;;;;;;4.40;3.97;;;32.70;51.20;;;;;;5044770;28;20202;-65
2023/06/19 09:52:51;;;;;;;5.43;4.57;;;32.70;50.40;;;;;;5059255;28;20283;-66
2023/06/19 09:55:19;;;;;;;5.17;4.67;;;32.70;49.70;;;;;;5044253;28;20266;-67
2023/06/19 09:57:48;;;;;;;7.63;4.47;;;32.70;49.70;;;;;;5044620;28;20195;-65
2023/06/19 10:00:21;;;;;;;5.43;4.93;;;32.70;49.40;;;;;;5047632;28;20209;-65
2023/06/19 10:02:49;;;;;;;5.37;4.80;;;32.70;49.40;;;;;;5030038;28;20213;-65
2023/06/19 10:05:18;;;;;;;5.47;4.63;;;32.80;49.80;;;;;;5047909;28;20207;-63
2023/06/19 10:07:46;;;;;;;5.10;4.60;;;32.90;50.30;;;;;;5049264;28;20234;-65
2023/06/19 10:10:25;;;;;;;4.57;4.27;;;32.90;48.90;;;;;;5052720;28;20198;-66
2023/06/19 10:12:55;;;;;;;6.40;4.67;;;33.00;47.30;;;;;;5047839;28;20210;-63
2023/06/19 10:15:28;;;;;;;5.87;4.70;;;33.10;47.80;;;;;;5033227;28;20291;-63
2023/06/19 10:18:02;;;;;;;5.73;4.43;;;33.10;48.40;;;;;;5046624;28;20217;-63
2023/06/19 10:20:32;;;;;;;5.30;4.80;;;33.30;47.50;;;;;;5047777;28;20735;-67
2023/06/19 10:23:00;;;;;;;6.27;5.00;;;33.40;47.90;;;;;;5044817;28;20243;-65
2023/06/19 10:25:32;;;;;;;5.00;4.60;;;33.50;47.60;;;;;;5044671;28;20218;-64
2023/06/19 10:28:00;;;;;;;5.23;4.60;;;33.60;47.60;;;;;;5047411;28;20280;-63
2023/06/19 10:30:29;;;;;;;6.13;5.10;;;33.70;47.60;;;;;;5047943;28;21200;-65
2023/06/19 10:32:57;;;;;;;5.60;4.33;;;33.60;46.70;;;;;;5049009;28;20651;-63
2023/06/19 10:35:25;;;;;;;6.10;4.87;;;33.60;46.30;;;;;;5048526;28;20195;-66
2023/06/19 10:37:52;;;;;;;5.13;4.73;;;33.60;47.90;;;;;;5048655;28;20234;-64
2023/06/19 10:40:19;;;;;;;4.97;4.57;;;33.70;47.30;;;;;;5045521;28;20195;-64
2023/06/19 10:42:46;;;;;;;5.47;4.97;;;33.70;47.00;;;;;;5053325;28;20269;-64
2023/06/19 10:45:17;;;;;;;6.13;5.00;;;33.80;46.70;;;;;;5052612;28;20233;-65
2023/06/19 10:47:45;;;;;;;5.37;4.03;;;33.70;46.60;;;;;;5053596;28;20207;-68
2023/06/19 10:50:13;;;;;;;5.47;4.67;;;33.60;46.60;;;;;;5052496;28;20199;-63
2023/06/19 10:52:44;;;;;;;4.97;4.47;;;33.70;46.40;;;;;;5045522;28;20257;-64
2023/06/19 10:55:13;;;;;;;5.30;4.80;;;33.70;46.70;;;;;;5048544;28;20202;-64
2023/06/19 10:57:44;;;;;;;7.63;4.10;;;33.80;47.00;;;;;;5042489;28;20218;-62
2023/06/19 11:00:21;;;;;;;8.37;4.80;;;34.00;47.60;;;;;;5046614;28;20218;-64
2023/06/19 11:02:49;;;;;;;4.37;4.07;;;34.30;46.90;;;;;;5045876;28;20652;-64
2023/06/19 11:05:20;;;;;;;4.90;4.20;;;34.50;45.90;;;;;;5049434;28;20194;-63
2023/06/19 11:07:59;;;;;;;5.07;3.93;;;34.60;45.10;;;;;;5045234;28;20629;-65
2023/06/19 11:10:28;;;;;;;6.50;4.73;;;34.90;44.60;;;;;;5050468;28;20205;-66
2023/06/19 11:12:56;;;;;;;5.50;4.63;;;35.00;44.40;;;;;;5046735;28;20289;-65
2023/06/19 11:15:31;;;;;;;5.57;5.07;;;35.00;44.40;;;;;;5045714;28;20199;-62
2023/06/19 11:18:01;;;;;;;9.63;4.50;;;35.00;43.80;;;;;;5048736;28;20209;-65
2023/06/19 11:20:28;;;;;;;4.27;3.87;;;35.00;43.90;;;;;;5046901;28;20206;-64
2023/06/19 11:23:00;;;;;;;4.77;4.30;;;35.00;44.00;;;;;;5042763;28;20576;-64
2023/06/19 11:25:38;;;;;;;4.87;4.43;;;35.00;44.30;;;;;;5046620;28;20199;-62
2023/06/19 11:28:15;;;;;;;4.90;4.40;;;35.20;41.90;;;;;;5043707;28;20215;-63
2023/06/19 11:30:43;;;;;;;3.90;3.60;;;35.10;42.00;;;;;;5045916;28;20276;-63
2023/06/19 11:33:23;;;;;;;4.90;4.40;;;35.20;42.90;;;;;;5052036;28;20516;-66
2023/06/19 11:35:52;;;;;;;5.07;4.30;;;35.30;41.90;;;;;;5048922;28;20204;-69
2023/06/19 11:38:25;;;;;;;5.07;4.50;;;35.30;42.60;;;;;;5038154;28;20202;-65
2023/06/19 11:40:55;;;;;;;4.80;4.40;;;35.30;43.70;;;;;;5057268;28;20289;-67
2023/06/19 11:43:32;;;;;;;5.87;4.37;;;35.30;42.70;;;;;;4998451;28;20213;-63
2023/06/19 11:46:04;;;;;;;4.77;4.10;;;35.30;42.70;;;;;;5035086;28;20206;-64
2023/06/19 11:48:32;;;;;;;5.97;4.13;;;35.40;42.40;;;;;;5041257;28;20280;-64
2023/06/19 11:50:59;;;;;;;5.03;4.40;;;35.40;43.40;;;;;;5032659;28;20190;-64
2023/06/19 11:53:27;;;;;;;4.43;4.03;;;35.40;42.60;;;;;;5045894;28;20285;-63
2023/06/19 11:55:53;;;;;;;6.57;4.43;;;35.30;40.60;;;;;;5036549;28;20210;-67
2023/06/19 11:58:21;;;;;;;4.40;3.63;;;35.00;40.50;;;;;;5044629;28;20240;-65
2023/06/19 12:00:48;;;;;;;4.70;4.30;;;34.80;41.90;;;;;;5041129;28;20305;-65
2023/06/19 12:03:16;;;;;;;4.70;4.30;;;34.60;41.80;;;;;;5050139;28;20863;-65
2023/06/19 12:05:43;;;;;;;6.07;4.37;;;34.50;42.40;;;;;;5043427;28;20195;-65
2023/06/19 12:08:10;;;;;;;5.80;4.37;;;34.40;42.70;;;;;;5043254;28;20696;-65
2023/06/19 12:10:37;;;;;;;4.37;3.97;;;34.50;42.30;;;;;;5043869;28;20199;-65
2023/06/19 12:13:04;;;;;;;5.87;4.37;;;34.60;42.90;;;;;;5029772;28;20551;-66
2023/06/19 12:15:32;;;;;;;4.63;4.23;;;34.60;43.40;;;;;;5045295;28;20633;-66
2023/06/19 12:18:03;;;;;;;9.57;4.93;;;34.60;44.00;;;;;;5043147;28;20269;-66
2023/06/19 12:20:31;;;;;;;7.53;4.10;;;34.80;43.40;;;;;;5044610;28;20258;-65
2023/06/19 12:22:58;;;;;;;5.00;4.50;;;34.90;43.40;;;;;;5046684;28;20318;-65
2023/06/19 12:25:25;;;;;;;4.50;4.07;;;35.00;42.00;;;;;;5046253;28;20526;-65
2023/06/19 12:27:52;;;;;;;4.33;4.03;;;35.00;41.00;;;;;;5048690;28;20553;-65
2023/06/19 12:30:22;;;;;;;4.57;4.17;;;34.90;42.00;;;;;;5041541;28;20572;-65
2023/06/19 12:32:50;;;;;;;5.47;4.33;;;34.80;42.40;;;;;;5044479;28;20668;-65
2023/06/19 12:35:17;;;;;;;4.57;3.80;;;34.70;42.80;;;;;;5040955;28;20201;-65
2023/06/19 12:37:45;;;;;;;5.70;4.23;;;34.50;43.20;;;;;;5043449;28;20202;-65
2023/06/19 12:40:12;;;;;;;6.03;4.20;;;34.50;43.50;;;;;;5044802;28;20200;-65
2023/06/19 12:42:40;;;;;;;6.70;4.67;;;34.40;44.00;;;;;;5043108;28;20209;-66
2023/06/19 12:45:07;;;;;;;5.80;3.87;;;34.50;44.10;;;;;;5043376;28;20195;-67
2023/06/19 12:47:34;;;;;;;4.87;4.47;;;34.50;44.70;;;;;;5040417;28;20207;-65